Terminal Aerodrome Forecast
Issued by NWS Sterling, VA

Home | Current Version | Previous Version | Text Only | Print | Product List | Glossary On
Versions: 1 2 3 4 5 6 7 8 9 10 11 12 13 14 15 16 17 18 19 20 21 22 23 24 25 26 27 28 29 30 31 32 33 34 35 36 37 38 39 40 41 42 43 44 45 46 47 48 49
000
FTUS41 KLWX 200601 RRA
TAFCHO
TAF
KCHO 200601Z 2006/2106 23009KT P6SM SCT020 BKN200
     FM201700 23010G20KT P6SM SCT035 BKN130
     FM202100 23009KT P6SM -SHRA VCTS SCT045CB BKN150
     FM210000 24008KT P6SM SCT020 BKN200=

USA.gov is the U.S. government's official web portal to all federal, state and local government web resources and services.